Time;durP1;ratioP1;P1;durP2;ratioP2;P2;SDS_P1;SDS_P2;PMS_P1;PMS_P2;Temp;Humidity;BMP_temperature;BMP_pressure;BME280_temperature;BME280_humidity;BME280_pressure;Samples;Min_cycle;Max_cycle;Signal;HPM_P1;HPM_P2
2023/07/01 00:00:05;;;;;;;1.33;0.70;;;;;;;20.24;72.52;100088.28;4877485;29;20064;-57
2023/07/01 00:02:31;;;;;;;0.75;0.38;;;;;;;20.17;71.31;100088.47;4878494;29;20068;-56
2023/07/01 00:04:59;;;;;;;0.43;0.38;;;;;;;20.13;72.74;100074.13;4857016;29;20088;-59
2023/07/01 00:07:24;;;;;;;0.70;0.50;;;;;;;20.28;72.33;100076.03;4868124;29;20057;-60
2023/07/01 00:09:50;;;;;;;0.35;0.30;;;;;;;20.33;70.82;100074.72;4876006;29;20045;-59
2023/07/01 00:12:15;;;;;;;0.65;0.50;;;;;;;20.42;70.13;100069.41;4868427;29;20607;-58
2023/07/01 00:14:41;;;;;;;1.33;0.60;;;;;;;20.28;70.57;100067.06;4845208;29;20085;-56
2023/07/01 00:17:09;;;;;;;1.00;0.60;;;;;;;20.54;69.43;100063.94;4856595;29;20486;-58
2023/07/01 00:19:35;;;;;;;0.40;0.40;;;;;;;20.56;70.11;100066.22;4857073;29;20045;-59
2023/07/01 00:22:02;;;;;;;1.35;0.60;;;;;;;20.47;71.12;100060.63;4849803;29;20053;-58
2023/07/01 00:24:28;;;;;;;1.58;0.38;;;;;;;20.46;70.81;100048.91;4856533;29;20069;-60
2023/07/01 00:26:53;;;;;;;0.38;0.38;;;;;;;20.41;71.29;100056.91;4856641;29;20044;-58
2023/07/01 00:29:19;;;;;;;2.33;0.47;;;;;;;20.46;71.02;100057.13;4852127;29;20355;-61
2023/07/01 00:31:47;;;;;;;0.40;0.40;;;;;;;20.54;70.17;100052.97;4862490;29;20100;-58
2023/07/01 00:34:12;;;;;;;0.63;0.32;;;;;;;20.46;70.16;100035.25;4889025;28;20050;-57
2023/07/01 00:36:37;;;;;;;0.90;0.45;;;;;;;20.38;70.56;100044.09;4962776;28;20039;-58
2023/07/01 00:39:03;;;;;;;0.88;0.43;;;;;;;20.46;69.83;100035.25;4955063;28;20113;-59
2023/07/01 00:41:29;;;;;;;2.05;0.57;;;;;;;20.44;69.71;100034.91;4970208;28;20026;-59
2023/07/01 00:43:55;;;;;;;0.70;0.52;;;;;;;20.53;69.06;100026.84;4968789;28;20042;-58
2023/07/01 00:46:21;;;;;;;0.50;0.50;;;;;;;20.50;69.90;100026.91;4973101;28;20050;-58
2023/07/01 00:48:47;;;;;;;0.50;0.50;;;;;;;20.45;69.04;100024.75;4938611;28;20158;-60
2023/07/01 00:51:13;;;;;;;0.70;0.50;;;;;;;20.57;68.01;100021.25;4951824;28;20026;-58
2023/07/01 00:53:40;;;;;;;0.40;0.40;;;;;;;20.21;68.80;100020.78;4953082;28;20037;-58
2023/07/01 00:56:07;;;;;;;0.47;0.47;;;;;;;20.12;70.32;100026.06;4955983;28;20486;-57
2023/07/01 00:58:33;;;;;;;0.52;0.50;;;;;;;20.30;69.04;100020.91;4954726;28;20058;-60
2023/07/01 01:01:02;;;;;;;0.50;0.50;;;;;;;20.21;69.07;100012.59;4972597;28;20035;-58
2023/07/01 01:03:43;;;;;;;0.40;0.40;;;;;;;20.02;69.73;100005.28;4965016;28;20045;-58
2023/07/01 01:06:23;;;;;;;0.70;0.52;;;;;;;20.08;70.17;100007.03;4968939;28;20037;-58
2023/07/01 01:08:58;;;;;;;0.40;0.40;;;;;;;20.08;69.90;99998.84;4952964;28;20497;-58
2023/07/01 01:11:26;;;;;;;0.40;0.35;;;;;;;20.02;70.45;100002.53;4964543;28;20031;-60
2023/07/01 01:13:54;;;;;;;0.47;0.38;;;;;;;20.03;70.25;99995.88;4970528;28;20035;-58
2023/07/01 01:16:20;;;;;;;0.60;0.60;;;;;;;20.02;70.34;99984.16;4951927;29;20126;-60
2023/07/01 01:18:48;;;;;;;0.88;0.60;;;;;;;20.17;70.23;99979.81;4969372;28;20521;-60
2023/07/01 01:21:15;;;;;;;0.77;0.40;;;;;;;20.11;69.94;99983.53;4953816;28;20034;-61
2023/07/01 01:23:52;;;;;;;0.85;0.60;;;;;;;20.20;69.75;99981.72;4972588;28;20039;-60
2023/07/01 01:26:20;;;;;;;0.60;0.35;;;;;;;19.96;71.11;99979.66;4954500;28;20397;-60
2023/07/01 01:28:46;;;;;;;0.95;0.60;;;;;;;20.01;70.86;99970.94;4970559;28;20049;-60
2023/07/01 01:31:12;;;;;;;0.35;0.35;;;;;;;20.11;70.45;99969.88;4961323;28;20397;-64
2023/07/01 01:33:40;;;;;;;0.88;0.60;;;;;;;19.94;71.84;99965.69;4962307;28;20526;-60
2023/07/01 01:36:10;;;;;;;0.47;0.47;;;;;;;20.01;71.01;99962.75;4961483;28;20031;-60
2023/07/01 01:38:39;;;;;;;0.75;0.40;;;;;;;19.93;71.35;99958.69;4971580;28;20063;-60
2023/07/01 01:41:04;;;;;;;0.30;0.30;;;;;;;19.99;71.16;99943.28;4950783;28;20035;-59
2023/07/01 01:43:52;;;;;;;0.40;0.40;;;;;;;20.04;70.91;99946.22;4969198;28;20045;-60
2023/07/01 01:46:21;;;;;;;2.10;0.60;;;;;;;19.98;70.75;99949.94;4954466;28;20041;-60
2023/07/01 01:48:46;;;;;;;0.32;0.32;;;;;;;20.05;70.73;99941.53;4953296;28;20055;-61
2023/07/01 01:51:14;;;;;;;0.50;0.50;;;;;;;20.05;70.32;99936.06;4971604;28;20070;-60
2023/07/01 01:53:42;;;;;;;1.45;0.80;;;;;;;20.05;70.78;99936.06;4970287;28;20062;-61
2023/07/01 01:56:08;;;;;;;0.75;0.52;;;;;;;20.07;70.18;99933.66;4951556;28;20464;-61
2023/07/01 01:58:34;;;;;;;2.33;1.00;;;;;;;20.01;71.26;99921.72;4968881;28;20069;-59
2023/07/01 02:01:00;;;;;;;0.93;0.45;;;;;;;20.02;71.22;99924.03;4971206;28;20062;-60
2023/07/01 02:03:25;;;;;;;0.57;0.57;;;;;;;20.18;70.71;99932.16;4965358;28;20061;-57
2023/07/01 02:05:51;;;;;;;1.35;0.55;;;;;;;20.20;70.07;99932.50;4952663;28;20029;-60
2023/07/01 02:08:16;;;;;;;1.80;0.68;;;;;;;20.20;70.34;99931.72;4952695;28;20557;-61
2023/07/01 02:10:42;;;;;;;0.70;0.70;;;;;;;19.73;71.35;99915.91;4971477;28;20461;-59
2023/07/01 02:13:07;;;;;;;0.60;0.50;;;;;;;19.88;70.99;99912.75;4952731;28;20077;-61
2023/07/01 02:15:33;;;;;;;1.30;0.50;;;;;;;19.93;70.31;99907.50;4971751;28;20031;-60
2023/07/01 02:17:58;;;;;;;0.60;0.40;;;;;;;19.93;70.01;99906.75;4971955;28;20074;-58
2023/07/01 02:20:24;;;;;;;0.60;0.50;;;;;;;19.91;70.18;99904.44;4952577;28;20034;-61
2023/07/01 02:22:49;;;;;;;0.95;0.60;;;;;;;19.91;70.59;99898.22;4953496;28;20030;-60
2023/07/01 02:25:15;;;;;;;0.40;0.40;;;;;;;20.06;70.04;99897.34;4971263;28;20126;-59
2023/07/01 02:27:40;;;;;;;0.43;0.40;;;;;;;20.12;69.08;99884.66;4951792;28;20031;-61
2023/07/01 02:30:07;;;;;;;2.25;0.45;;;;;;;19.83;70.05;99880.47;4966651;28;20504;-58
2023/07/01 02:32:32;;;;;;;0.65;0.55;;;;;;;19.73;70.25;99882.34;4969957;28;20019;-59
2023/07/01 02:34:59;;;;;;;1.02;0.80;;;;;;;19.63;71.58;99873.25;4968444;28;20031;-61
2023/07/01 02:37:24;;;;;;;0.73;0.70;;;;;;;19.95;69.85;99871.53;4951361;28;20035;-60
2023/07/01 02:39:50;;;;;;;0.50;0.35;;;;;;;19.76;70.14;99871.28;4970342;28;20043;-58
2023/07/01 02:42:19;;;;;;;0.75;0.70;;;;;;;19.82;70.83;99879.75;4970280;28;20117;-60
2023/07/01 02:44:48;;;;;;;1.75;0.88;;;;;;;19.97;70.24;99869.13;4970480;28;20065;-60
2023/07/01 02:47:18;;;;;;;0.60;0.50;;;;;;;20.09;69.75;99871.09;4963036;28;20074;-61
2023/07/01 02:49:43;;;;;;;0.77;0.55;;;;;;;19.88;70.35;99860.81;4970803;28;20539;-59
2023/07/01 02:52:11;;;;;;;0.93;0.70;;;;;;;19.98;69.62;99863.22;4971958;28;20094;-60
2023/07/01 02:54:40;;;;;;;0.45;0.45;;;;;;;20.09;69.16;99865.63;4960862;28;20486;-61
2023/07/01 02:57:10;;;;;;;0.60;0.55;;;;;;;20.11;68.53;99857.75;4951986;28;20034;-61
2023/07/01 02:59:37;;;;;;;0.50;0.50;;;;;;;20.15;68.21;99855.69;4948282;28;20035;-61
2023/07/01 03:02:04;;;;;;;1.27;0.80;;;;;;;20.13;67.77;99860.81;4967600;28;20035;-60
2023/07/01 03:04:30;;;;;;;1.25;0.50;;;;;;;20.00;68.90;99851.84;4951198;28;20050;-59
2023/07/01 03:06:56;;;;;;;0.52;0.52;;;;;;;19.98;68.78;99841.34;4950545;28;20027;-61
2023/07/01 03:09:22;;;;;;;0.65;0.57;;;;;;;19.92;69.06;99837.63;4968976;28;20118;-61
2023/07/01 03:11:48;;;;;;;1.10;0.88;;;;;;;19.67;69.41;99841.13;4936064;28;20120;-61
2023/07/01 03:14:14;;;;;;;1.38;0.73;;;;;;;19.69;69.14;99830.53;4952860;28;20115;-59
2023/07/01 03:16:42;;;;;;;0.50;0.50;;;;;;;19.72;68.81;99832.38;4950456;28;20046;-61
2023/07/01 03:19:08;;;;;;;2.45;0.40;;;;;;;19.65;69.35;99834.56;4967698;28;20034;-59
2023/07/01 03:21:34;;;;;;;0.80;0.65;;;;;;;19.62;69.29;99833.47;4970455;28;20502;-61
2023/07/01 03:24:00;;;;;;;0.70;0.60;;;;;;;19.71;68.95;99841.00;4968476;28;20109;-60
2023/07/01 03:26:26;;;;;;;0.32;0.30;;;;;;;19.58;68.43;99827.34;4970760;28;20034;-61
2023/07/01 03:28:53;;;;;;;0.85;0.70;;;;;;;19.80;67.87;99827.47;4970366;28;20492;-60
2023/07/01 03:31:20;;;;;;;1.08;0.52;;;;;;;19.79;67.51;99815.78;4947708;28;20034;-61
2023/07/01 03:33:46;;;;;;;1.17;0.73;;;;;;;19.63;68.55;99812.38;4969843;28;20468;-61
2023/07/01 03:36:11;;;;;;;0.82;0.60;;;;;;;19.55;67.74;99814.56;4947795;28;20113;-61
2023/07/01 03:38:37;;;;;;;0.85;0.80;;;;;;;19.70;67.71;99817.63;4970154;28;20039;-61
2023/07/01 03:41:02;;;;;;;3.55;0.98;;;;;;;19.83;66.74;99812.94;4969534;28;20070;-60
2023/07/01 03:43:28;;;;;;;0.45;0.45;;;;;;;19.74;67.66;99812.84;4967937;28;20149;-60
2023/07/01 03:45:56;;;;;;;0.75;0.70;;;;;;;19.64;68.39;99808.44;4952407;28;20042;-60
2023/07/01 03:48:22;;;;;;;1.15;0.55;;;;;;;19.63;67.13;99807.69;4970207;28;20058;-60
2023/07/01 03:50:47;;;;;;;1.38;0.70;;;;;;;19.53;68.73;99797.81;4971226;28;20046;-61
2023/07/01 03:53:13;;;;;;;0.77;0.57;;;;;;;19.62;68.00;99800.69;4972009;28;20037;-60
2023/07/01 03:55:38;;;;;;;2.05;0.80;;;;;;;19.77;67.17;99795.53;4974231;28;20042;-61
2023/07/01 03:58:04;;;;;;;0.90;0.70;;;;;;;19.70;66.85;99798.50;4973634;28;20042;-61
2023/07/01 04:00:30;;;;;;;1.15;1.05;;;;;;;19.85;66.49;99793.34;4969547;28;20054;-61
2023/07/01 04:02:55;;;;;;;1.77;0.80;;;;;;;19.91;66.09;99788.88;4971102;28;20030;-61
2023/07/01 04:05:21;;;;;;;0.73;0.63;;;;;;;19.94;65.63;99788.00;4971513;28;20389;-61
2023/07/01 04:07:48;;;;;;;0.98;0.82;;;;;;;19.92;65.81;99788.41;4970576;28;20521;-61
2023/07/01 04:10:14;;;;;;;2.55;0.75;;;;;;;19.94;65.25;99777.06;4973589;28;20039;-61
2023/07/01 04:12:40;;;;;;;1.55;0.80;;;;;;;19.96;64.41;99783.59;4970430;28;20494;-61
2023/07/01 04:15:10;;;;;;;1.08;0.57;;;;;;;19.95;64.95;99768.44;4969695;28;20054;-61
2023/07/01 04:17:37;;;;;;;0.95;0.70;;;;;;;19.98;64.78;99772.22;4951974;28;20038;-61
2023/07/01 04:20:05;;;;;;;0.63;0.43;;;;;;;20.04;64.46;99765.78;4972953;28;20081;-61
2023/07/01 04:22:31;;;;;;;0.98;0.68;;;;;;;19.82;64.99;99769.66;4972080;28;20035;-60
2023/07/01 04:24:56;;;;;;;1.08;0.80;;;;;;;19.85;64.76;99772.25;4955663;28;20106;-61
2023/07/01 04:27:22;;;;;;;0.70;0.60;;;;;;;19.92;64.52;99768.53;4973532;28;20030;-61
2023/07/01 04:29:47;;;;;;;0.80;0.65;;;;;;;19.85;64.94;99760.56;4973505;28;20380;-58
2023/07/01 04:32:12;;;;;;;1.17;0.70;;;;;;;19.90;65.51;99760.03;4967983;28;20035;-59
2023/07/01 04:34:38;;;;;;;0.73;0.70;;;;;;;19.98;64.28;99748.41;4972137;28;20042;-58
2023/07/01 04:37:03;;;;;;;0.73;0.70;;;;;;;19.80;64.46;99754.44;4971579;28;20026;-60
2023/07/01 04:39:29;;;;;;;0.95;0.65;;;;;;;19.86;64.24;99748.44;4971531;28;20103;-60
2023/07/01 04:41:54;;;;;;;0.77;0.65;;;;;;;19.52;65.22;99741.69;4972225;28;20042;-60
2023/07/01 04:44:23;;;;;;;1.25;0.90;;;;;;;19.69;64.61;99743.09;4973407;28;20552;-58
2023/07/01 04:46:52;;;;;;;2.97;0.80;;;;;;;19.77;64.30;99733.47;4969102;28;20023;-60
2023/07/01 04:49:17;;;;;;;3.85;0.90;;;;;;;19.68;65.02;99738.84;4953937;28;20038;-59
2023/07/01 04:51:43;;;;;;;0.90;0.70;;;;;;;19.78;64.33;99731.50;4970718;28;20035;-59
2023/07/01 04:54:08;;;;;;;0.95;0.80;;;;;;;19.96;64.20;99733.63;4952184;28;20062;-59
2023/07/01 04:56:35;;;;;;;1.05;0.80;;;;;;;20.01;64.28;99739.34;4972844;28;20066;-59
2023/07/01 04:59:01;;;;;;;0.80;0.75;;;;;;;20.01;64.86;99730.34;4972979;28;20064;-59
2023/07/01 05:01:27;;;;;;;0.95;0.80;;;;;;;19.75;64.28;99733.13;4952875;28;20110;-60
2023/07/01 05:03:52;;;;;;;2.17;0.90;;;;;;;19.83;65.26;99732.91;4971309;28;20039;-59
2023/07/01 05:06:18;;;;;;;1.20;0.60;;;;;;;19.90;65.12;99733.44;4968134;28;20525;-60
2023/07/01 05:08:44;;;;;;;3.33;0.80;;;;;;;19.79;64.97;99725.59;4960886;28;20035;-61
2023/07/01 05:11:10;;;;;;;1.83;0.80;;;;;;;19.74;65.97;99728.84;4953493;28;20045;-60
2023/07/01 05:13:35;;;;;;;1.33;0.82;;;;;;;19.86;66.08;99732.03;4966989;28;20043;-60
2023/07/01 05:16:01;;;;;;;0.90;0.60;;;;;;;20.08;64.36;99730.09;4970124;28;20045;-60
2023/07/01 05:18:27;;;;;;;1.23;0.52;;;;;;;19.77;65.80;99727.22;4969299;28;20022;-59
2023/07/01 05:20:52;;;;;;;0.70;0.57;;;;;;;19.85;65.64;99725.03;4953616;28;20051;-60
2023/07/01 05:23:18;;;;;;;0.60;0.60;;;;;;;19.93;65.36;99709.94;4971886;28;20042;-60
2023/07/01 05:25:43;;;;;;;0.80;0.80;;;;;;;19.96;65.14;99709.03;4950903;28;20057;-60
2023/07/01 05:28:09;;;;;;;0.50;0.50;;;;;;;19.85;66.01;99714.88;4953080;28;20030;-59
2023/07/01 05:30:34;;;;;;;0.57;0.55;;;;;;;19.90;66.21;99725.22;4966836;28;20089;-60
2023/07/01 05:33:20;;;;;;;1.05;0.95;;;;;;;19.99;66.49;99714.41;4970406;28;20039;-60
2023/07/01 05:35:45;;;;;;;1.25;0.75;;;;;;;19.82;66.05;99714.97;4874425;29;20078;-59
2023/07/01 05:38:32;;;;;;;1.15;0.80;;;;;;;19.96;66.23;99709.03;4874137;29;20124;-60
2023/07/01 05:40:57;;;;;;;1.20;0.85;;;;;;;19.94;65.45;99717.69;4856427;29;20060;-60
2023/07/01 05:43:23;;;;;;;1.60;0.88;;;;;;;19.94;67.47;99711.47;4856933;29;20057;-59
2023/07/01 05:45:48;;;;;;;0.70;0.70;;;;;;;20.01;69.82;99722.94;4858344;29;20101;-60
2023/07/01 05:48:14;;;;;;;0.60;0.60;;;;;;;20.10;70.33;99714.03;4851481;29;20497;-60
2023/07/01 05:50:39;;;;;;;1.05;0.63;;;;;;;19.99;70.51;99724.56;4856905;29;20045;-60
2023/07/01 05:53:05;;;;;;;1.17;0.60;;;;;;;20.07;70.77;99717.66;4864322;29;20521;-60
2023/07/01 05:55:30;;;;;;;2.78;0.93;;;;;;;19.79;74.16;99725.59;4853871;29;20037;-60
2023/07/01 05:57:56;;;;;;;0.73;0.65;;;;;;;19.68;77.06;99711.50;4851958;29;20045;-57
2023/07/01 06:00:22;;;;;;;1.30;0.90;;;;;;;19.68;76.90;99716.97;4844670;29;20722;-61
2023/07/01 06:02:47;;;;;;;1.08;0.85;;;;;;;19.76;75.89;99710.06;4851213;29;20057;-60
2023/07/01 06:05:12;;;;;;;1.38;0.75;;;;;;;19.67;77.47;99709.19;4855732;29;20422;-61
2023/07/01 06:07:38;;;;;;;0.90;0.85;;;;;;;19.62;80.28;99712.50;4855220;29;20041;-60
2023/07/01 06:10:04;;;;;;;1.10;1.00;;;;;;;19.77;79.17;99717.06;4851402;29;20116;-61
2023/07/01 06:12:29;;;;;;;1.00;0.90;;;;;;;19.79;79.33;99705.69;4878724;29;20087;-60
2023/07/01 06:14:55;;;;;;;1.00;0.80;;;;;;;19.72;80.73;99717.59;4929455;29;20042;-61
2023/07/01 06:17:20;;;;;;;1.17;0.77;;;;;;;19.86;79.28;99713.66;4940380;28;20392;-61
2023/07/01 06:19:45;;;;;;;1.00;0.95;;;;;;;19.73;79.96;99719.16;4965467;28;20047;-61
2023/07/01 06:22:11;;;;;;;1.58;1.20;;;;;;;19.71;79.87;99705.16;4968159;28;20038;-61
2023/07/01 06:24:36;;;;;;;1.52;0.80;;;;;;;19.80;80.06;99705.25;4970515;28;20510;-61
2023/07/01 06:27:03;;;;;;;0.88;0.80;;;;;;;19.95;78.55;99713.75;4966589;28;20481;-60
2023/07/01 06:29:29;;;;;;;1.00;0.90;;;;;;;19.98;78.33;99703.88;4971242;28;20049;-60
2023/07/01 06:31:54;;;;;;;2.85;1.17;;;;;;;19.84;78.51;99707.84;4970042;28;20031;-61
2023/07/01 06:34:19;;;;;;;0.88;0.73;;;;;;;19.84;79.76;99698.91;4952545;28;20082;-61
2023/07/01 06:37:05;;;;;;;1.38;1.00;;;;;;;19.80;79.37;99694.31;4967646;28;20406;-62
2023/07/01 06:39:32;;;;;;;2.08;1.20;;;;;;;19.84;80.86;99693.44;4946347;28;20443;-60
2023/07/01 06:41:57;;;;;;;2.28;1.02;;;;;;;19.86;83.11;99691.03;4941489;29;20074;-61
2023/07/01 06:44:22;;;;;;;1.23;1.00;;;;;;;20.00;82.23;99694.03;4948821;29;20530;-62
2023/07/01 06:46:48;;;;;;;1.30;0.98;;;;;;;20.06;82.10;99694.25;4948244;29;20035;-62
2023/07/01 06:49:13;;;;;;;1.00;0.90;;;;;;;20.10;82.36;99694.88;4939396;28;20032;-60
2023/07/01 06:51:41;;;;;;;1.05;0.85;;;;;;;19.85;81.19;99689.50;4945148;29;20522;-60
2023/07/01 06:54:07;;;;;;;0.88;0.85;;;;;;;19.70;78.43;99670.81;4948039;29;20050;-61
2023/07/01 06:56:32;;;;;;;1.85;1.50;;;;;;;19.53;79.63;99668.69;4946988;29;20051;-62
2023/07/01 06:58:58;;;;;;;1.30;1.15;;;;;;;19.60;80.40;99665.72;4948437;29;20039;-62
2023/07/01 07:01:23;;;;;;;1.33;0.90;;;;;;;19.82;80.87;99654.84;4949025;29;20039;-61
2023/07/01 07:03:49;;;;;;;1.55;1.10;;;;;;;19.82;83.55;99649.41;4947877;29;20044;-62
2023/07/01 07:06:14;;;;;;;1.38;0.95;;;;;;;19.86;84.74;99644.56;4939533;28;22196;-62
2023/07/01 07:08:40;;;;;;;1.48;0.98;;;;;;;20.04;84.53;99652.91;4943163;29;20106;-61
2023/07/01 07:11:05;;;;;;;1.08;0.98;;;;;;;19.98;81.91;99641.00;4943559;28;20052;-62
2023/07/01 07:13:31;;;;;;;2.58;1.00;;;;;;;20.11;81.79;99644.47;4939709;29;20031;-62
2023/07/01 07:15:56;;;;;;;1.38;1.10;;;;;;;20.10;82.34;99640.22;4949978;29;20106;-62
2023/07/01 07:18:22;;;;;;;1.45;0.77;;;;;;;20.10;83.64;99651.16;4957856;28;20043;-61
2023/07/01 07:20:47;;;;;;;1.45;1.00;;;;;;;20.02;80.04;99644.38;4971226;28;20051;-62
2023/07/01 07:23:13;;;;;;;1.05;0.88;;;;;;;19.94;82.32;99646.59;4973365;28;20031;-62
2023/07/01 07:25:38;;;;;;;0.65;0.60;;;;;;;20.04;81.74;99636.50;4969653;28;20027;-62
2023/07/01 07:28:04;;;;;;;1.20;0.90;;;;;;;19.85;81.83;99632.09;4971611;28;20054;-62
2023/07/01 07:30:30;;;;;;;0.93;0.80;;;;;;;19.88;81.08;99634.72;4972947;28;20077;-62
2023/07/01 07:32:55;;;;;;;1.55;0.70;;;;;;;20.05;79.70;99630.63;4972123;28;20034;-63
2023/07/01 07:35:21;;;;;;;1.88;1.02;;;;;;;20.10;79.70;99632.00;4948116;28;20039;-61
2023/07/01 07:37:47;;;;;;;1.40;0.80;;;;;;;20.15;80.42;99634.19;4980795;28;20104;-62
2023/07/01 07:40:13;;;;;;;0.88;0.68;;;;;;;20.25;80.39;99635.78;4969096;28;20039;-62
2023/07/01 07:42:40;;;;;;;1.50;1.10;;;;;;;20.31;79.46;99626.56;4970945;28;20413;-62
2023/07/01 07:45:06;;;;;;;2.08;0.93;;;;;;;20.25;81.18;99627.59;4968020;28;20507;-62
2023/07/01 07:47:32;;;;;;;1.75;1.02;;;;;;;20.27;81.42;99625.16;4971922;28;20034;-63
2023/07/01 07:49:57;;;;;;;1.00;0.90;;;;;;;20.21;82.13;99626.97;4973735;28;20038;-60
2023/07/01 07:52:23;;;;;;;0.80;0.80;;;;;;;20.01;84.52;99621.00;4972608;28;20066;-62
2023/07/01 07:54:49;;;;;;;0.80;0.80;;;;;;;19.86;83.19;99611.78;4974357;28;20504;-62
2023/07/01 07:57:14;;;;;;;1.10;1.00;;;;;;;19.84;83.97;99614.94;4974528;28;20073;-60
2023/07/01 07:59:41;;;;;;;1.17;1.08;;;;;;;19.92;85.37;99620.94;4974098;28;20038;-62
2023/07/01 08:02:07;;;;;;;0.70;0.57;;;;;;;19.82;86.98;99622.06;4967818;28;20039;-62
2023/07/01 08:04:33;;;;;;;5.15;1.10;;;;;;;19.89;86.52;99625.31;4973082;28;20066;-62
2023/07/01 08:06:59;;;;;;;5.88;1.25;;;;;;;19.89;88.75;99616.34;4973542;28;20492;-62
2023/07/01 08:09:25;;;;;;;1.33;1.13;;;;;;;19.89;89.34;99619.06;4970173;28;20046;-62
2023/07/01 08:11:50;;;;;;;1.92;1.00;;;;;;;19.93;88.46;99623.22;4968505;28;20061;-60
2023/07/01 08:14:19;;;;;;;2.20;1.48;;;;;;;19.84;88.26;99614.19;4970580;28;20379;-62
2023/07/01 08:16:45;;;;;;;0.80;0.80;;;;;;;19.78;87.72;99614.72;4953156;28;20038;-61
2023/07/01 08:19:10;;;;;;;0.95;0.82;;;;;;;19.78;89.12;99609.28;4972528;28;20478;-60
2023/07/01 08:21:37;;;;;;;1.10;0.73;;;;;;;19.93;88.96;99612.28;4966251;28;20038;-62
2023/07/01 08:24:12;;;;;;;0.95;0.88;;;;;;;19.89;88.93;99610.88;4957327;28;20042;-61
2023/07/01 08:26:38;;;;;;;1.00;0.90;;;;;;;19.95;89.19;99609.09;4973552;28;20043;-62
2023/07/01 08:29:07;;;;;;;1.10;0.80;;;;;;;19.88;88.94;99612.84;4972091;28;20023;-61
2023/07/01 08:31:33;;;;;;;2.17;1.50;;;;;;;20.06;89.11;99623.16;4968345;28;20681;-60
2023/07/01 08:33:59;;;;;;;2.17;0.95;;;;;;;20.02;88.64;99609.63;4954751;28;20063;-61
2023/07/01 08:36:25;;;;;;;0.88;0.68;;;;;;;19.71;90.05;99612.25;4954087;28;20097;-61
2023/07/01 08:38:50;;;;;;;0.88;0.80;;;;;;;19.81;89.31;99613.09;4973252;28;20027;-62
2023/07/01 08:41:18;;;;;;;1.35;1.00;;;;;;;19.92;89.11;99610.00;4954902;28;20034;-61
2023/07/01 08:43:47;;;;;;;1.10;0.90;;;;;;;20.03;88.38;99615.84;4972419;28;20067;-61
2023/07/01 08:46:15;;;;;;;0.85;0.75;;;;;;;19.82;89.87;99603.72;4970055;28;20062;-61
2023/07/01 08:48:44;;;;;;;1.08;0.80;;;;;;;19.74;89.95;99605.88;4972799;28;20066;-63
2023/07/01 08:51:12;;;;;;;0.93;0.93;;;;;;;19.60;91.53;99603.66;4971794;28;20037;-62
2023/07/01 08:53:39;;;;;;;2.08;0.82;;;;;;;19.69;90.36;99598.25;4968854;28;20122;-60
2023/07/01 08:56:06;;;;;;;0.90;0.70;;;;;;;19.72;91.29;99608.31;4971543;28;20042;-61
2023/07/01 08:58:32;;;;;;;1.58;1.10;;;;;;;19.72;91.43;99596.63;4969985;28;20122;-60
2023/07/01 09:00:58;;;;;;;1.73;1.08;;;;;;;19.70;92.43;99599.03;4969947;28;20049;-61
2023/07/01 09:03:26;;;;;;;1.20;0.85;;;;;;;19.89;91.78;99597.22;4970202;28;20449;-60
2023/07/01 09:05:51;;;;;;;2.33;1.15;;;;;;;19.82;92.13;99600.19;4968940;28;20097;-63
2023/07/01 09:08:17;;;;;;;2.08;1.02;;;;;;;19.72;92.16;99593.91;4972497;28;20034;-61
2023/07/01 09:10:43;;;;;;;1.70;1.05;;;;;;;19.76;91.30;99592.56;4968215;28;20046;-61
2023/07/01 09:13:13;;;;;;;1.20;0.75;;;;;;;19.72;91.35;99591.91;4971447;28;20097;-61
2023/07/01 09:15:48;;;;;;;2.13;0.95;;;;;;;19.65;92.25;99591.38;4962046;28;20541;-61
2023/07/01 09:18:30;;;;;;;1.25;0.75;;;;;;;19.56;92.48;99600.28;4972022;28;20030;-61
2023/07/01 09:20:56;;;;;;;1.85;1.20;;;;;;;19.64;91.29;99590.66;4972583;28;20486;-59
2023/07/01 09:23:26;;;;;;;1.15;0.93;;;;;;;19.47;92.86;99597.44;4970342;28;20035;-61
2023/07/01 09:26:06;;;;;;;2.20;1.33;;;;;;;19.21;94.51;99590.47;4972202;28;20041;-61
2023/07/01 09:28:33;;;;;;;1.07;0.87;;;;;;;19.29;93.61;99586.31;4970935;28;20393;-61
2023/07/01 09:31:00;;;;;;;1.00;0.77;;;;;;;19.29;94.62;99582.81;4970284;28;20034;-61
2023/07/01 09:33:26;;;;;;;0.95;0.93;;;;;;;19.26;94.50;99586.44;4963862;28;20401;-61
2023/07/01 09:36:01;;;;;;;1.35;1.08;;;;;;;19.21;95.27;99589.72;4964371;28;20126;-63
2023/07/01 09:38:29;;;;;;;1.38;1.10;;;;;;;19.15;95.48;99588.72;4968549;28;20549;-62
2023/07/01 09:40:55;;;;;;;0.80;0.80;;;;;;;19.32;95.37;99574.53;4967871;28;20556;-61
2023/07/01 09:43:33;;;;;;;1.38;1.10;;;;;;;19.46;95.43;99579.53;4968571;28;20038;-62
2023/07/01 09:45:58;;;;;;;2.47;1.50;;;;;;;19.47;95.81;99575.59;4952604;28;20038;-62
2023/07/01 09:48:24;;;;;;;1.75;1.33;;;;;;;19.59;95.03;99580.25;4959954;28;20061;-65
2023/07/01 09:50:50;;;;;;;1.20;1.10;;;;;;;19.68;94.62;99574.13;4949285;28;20093;-63
2023/07/01 09:53:19;;;;;;;1.45;0.98;;;;;;;19.60;94.47;99573.59;4966368;28;20106;-63
2023/07/01 09:55:46;;;;;;;1.48;0.88;;;;;;;19.47;94.95;99569.38;4954455;28;20039;-63
2023/07/01 09:58:12;;;;;;;1.20;0.93;;;;;;;19.11;96.72;99564.28;4960310;28;20042;-62
2023/07/01 10:00:39;;;;;;;1.52;1.00;;;;;;;19.29;96.02;99569.16;4954814;28;20030;-63
2023/07/01 10:03:04;;;;;;;1.70;1.38;;;;;;;19.40;95.54;99566.88;4963962;28;20050;-64
2023/07/01 10:05:30;;;;;;;2.13;1.23;;;;;;;19.39;96.29;99568.84;4939747;28;21411;-63
2023/07/01 10:07:56;;;;;;;0.70;0.60;;;;;;;19.41;97.01;99569.19;4972116;28;20490;-65
2023/07/01 10:10:21;;;;;;;1.63;1.20;;;;;;;19.45;97.00;99569.81;4953162;28;20037;-64
2023/07/01 10:12:49;;;;;;;1.35;1.00;;;;;;;19.58;96.55;99562.34;4965612;28;20102;-65
2023/07/01 10:15:20;;;;;;;3.10;1.23;;;;;;;19.59;95.62;99561.13;4964249;28;20050;-64
2023/07/01 10:17:47;;;;;;;5.07;1.60;;;;;;;19.47;95.98;99555.72;4962413;28;20482;-63
2023/07/01 10:20:30;;;;;;;1.02;0.90;;;;;;;19.33;95.52;99556.19;4961660;28;20093;-63
2023/07/01 10:22:59;;;;;;;2.60;1.20;;;;;;;19.40;96.37;99545.78;4954917;28;20027;-65
2023/07/01 10:25:30;;;;;;;1.48;1.10;;;;;;;19.40;96.15;99554.00;4966995;28;20165;-61
2023/07/01 10:28:02;;;;;;;1.38;1.00;;;;;;;19.33;96.86;99543.31;4960163;28;20033;-65
2023/07/01 10:30:46;;;;;;;1.63;1.00;;;;;;;19.49;97.29;99539.66;4964415;28;20035;-65
2023/07/01 10:33:33;;;;;;;1.00;0.90;;;;;;;19.61;96.45;99545.06;4962131;28;20049;-64
2023/07/01 10:36:17;;;;;;;10.30;1.48;;;;;;;19.70;96.19;99542.41;4962633;28;20038;-65
2023/07/01 10:38:43;;;;;;;1.52;1.10;;;;;;;19.62;95.14;99543.09;4961503;28;20494;-65
2023/07/01 10:41:08;;;;;;;0.93;0.88;;;;;;;19.63;95.67;99528.22;4960989;28;20034;-65
2023/07/01 10:43:38;;;;;;;1.23;1.00;;;;;;;19.46;96.30;99541.31;4959964;28;20102;-65
2023/07/01 10:46:12;;;;;;;1.58;1.42;;;;;;;19.58;95.97;99531.53;4958925;28;20125;-64
2023/07/01 10:49:00;;;;;;;5.47;1.45;;;;;;;19.41;96.04;99530.94;4958162;28;20039;-65
2023/07/01 10:51:26;;;;;;;2.25;1.30;;;;;;;19.50;95.67;99531.03;4947477;28;20038;-64
2023/07/01 10:53:58;;;;;;;2.03;1.00;;;;;;;19.38;97.06;99529.09;4961717;28;20418;-63
2023/07/01 10:56:24;;;;;;;1.27;1.00;;;;;;;19.52;96.02;99528.59;4960261;28;20030;-65
2023/07/01 10:59:18;;;;;;;2.83;1.45;;;;;;;19.67;95.88;99532.38;4967139;28;20485;-62
2023/07/01 11:01:46;;;;;;;6.15;1.20;;;;;;;19.53;97.21;99529.38;4953060;28;20042;-64
2023/07/01 11:04:11;;;;;;;2.08;1.13;;;;;;;19.28;99.05;99521.97;4945927;28;20035;-63
2023/07/01 11:06:51;;;;;;;1.90;1.10;;;;;;;19.55;97.96;99522.25;4963503;28;20033;-65
2023/07/01 11:09:28;;;;;;;2.33;0.95;;;;;;;19.61;97.36;99522.44;4961110;28;20034;-64
2023/07/01 11:11:55;;;;;;;1.48;1.05;;;;;;;19.66;96.85;99517.19;4959054;28;20039;-65
2023/07/01 11:14:20;;;;;;;1.30;1.20;;;;;;;19.52;97.97;99516.91;4963525;28;20038;-64
2023/07/01 11:16:46;;;;;;;3.17;1.40;;;;;;;19.63;98.20;99520.81;4961933;28;20061;-65
2023/07/01 11:19:16;;;;;;;3.80;1.58;;;;;;;19.66;98.10;99516.44;4957807;28;20046;-65
2023/07/01 11:21:43;;;;;;;1.33;1.00;;;;;;;19.73;97.22;99519.66;4963455;28;20667;-64
2023/07/01 11:24:10;;;;;;;1.58;1.33;;;;;;;19.72;97.54;99520.84;4953866;28;20058;-63
2023/07/01 11:26:37;;;;;;;0.85;0.85;;;;;;;19.78;96.76;99515.63;4949400;28;20090;-63
2023/07/01 11:29:10;;;;;;;2.58;1.48;;;;;;;19.78;97.22;99510.88;4961622;28;20045;-64
2023/07/01 11:31:36;;;;;;;1.75;1.45;;;;;;;19.75;97.19;99513.75;4975019;28;20027;-64